createdAt,value
2023-01-19T00:00:54.182Z,94040.80
2023-01-19T00:03:21.709Z,94045.00
2023-01-19T00:05:48.891Z,94048.60
2023-01-19T00:08:16.755Z,94055.20
2023-01-19T00:10:47.127Z,94060.00
2023-01-19T00:13:15.056Z,94057.40
2023-01-19T00:15:41.752Z,94066.80
2023-01-19T00:18:10.589Z,94076.20
2023-01-19T00:20:38.725Z,94077.00
2023-01-19T00:23:07.640Z,94081.80
2023-01-19T00:25:34.640Z,94083.80
2023-01-19T00:28:02.010Z,94089.00
2023-01-19T00:30:29.604Z,94090.80
2023-01-19T00:32:56.636Z,94095.60
2023-01-19T00:35:23.353Z,94092.80
2023-01-19T00:37:50.099Z,94097.40
2023-01-19T00:40:17.307Z,94095.40
2023-01-19T00:42:44.628Z,94099.20
2023-01-19T00:45:15.148Z,94103.00
2023-01-19T00:47:42.232Z,94103.60
2023-01-19T00:50:14.341Z,94100.20
2023-01-19T00:52:41.355Z,94103.20
2023-01-19T00:55:10.469Z,94104.60
2023-01-19T00:57:38.790Z,94104.20
2023-01-19T01:00:09.086Z,94101.20
2023-01-19T01:02:36.873Z,94103.80
2023-01-19T01:05:06.193Z,94108.60
2023-01-19T01:07:40.616Z,94110.40
2023-01-19T01:10:14.197Z,94108.20
2023-01-19T01:12:41.763Z,94113.80
2023-01-19T01:15:22.784Z,94115.40
2023-01-19T01:17:52.941Z,94122.60
2023-01-19T01:20:23.933Z,94125.00
2023-01-19T01:22:53.591Z,94122.40
2023-01-19T01:25:25.146Z,94126.80
2023-01-19T01:27:52.513Z,94127.20
2023-01-19T01:30:20.498Z,94131.80
2023-01-19T01:32:47.325Z,94130.60
2023-01-19T01:35:15.317Z,94132.80
2023-01-19T01:37:42.954Z,94135.40
2023-01-19T01:40:14.176Z,94139.40
2023-01-19T01:42:42.563Z,94148.00
2023-01-19T01:45:38.476Z,94145.60
2023-01-19T01:48:27.139Z,94145.60
2023-01-19T01:51:25.794Z,94143.40
2023-01-19T01:54:10.887Z,94146.20
2023-01-19T01:56:44.681Z,94151.60
2023-01-19T01:59:29.446Z,94152.40
2023-01-19T02:02:19.027Z,94155.60
2023-01-19T02:04:58.041Z,94155.60
2023-01-19T02:08:09.600Z,94156.40
2023-01-19T02:10:55.390Z,94160.00
2023-01-19T02:13:23.068Z,94159.80
2023-01-19T02:15:57.923Z,94162.40
2023-01-19T02:18:29.005Z,94160.40
2023-01-19T02:21:24.448Z,94166.40
2023-01-19T02:23:54.360Z,94166.40
2023-01-19T02:26:28.529Z,94164.60
2023-01-19T02:29:03.807Z,94172.20
2023-01-19T02:31:32.513Z,94175.60
2023-01-19T02:34:01.180Z,94175.00
2023-01-19T02:36:56.186Z,94173.00
2023-01-19T02:39:31.911Z,94174.40
2023-01-19T02:42:07.196Z,94182.20
2023-01-19T02:44:36.536Z,94183.80
2023-01-19T02:47:04.317Z,94183.00
2023-01-19T02:49:30.958Z,94183.80
2023-01-19T02:51:59.138Z,94180.80
2023-01-19T02:54:28.803Z,94181.80
2023-01-19T02:57:36.193Z,94188.20
2023-01-19T03:00:46.445Z,94190.20
2023-01-19T03:03:55.907Z,94194.20
2023-01-19T03:06:37.742Z,94194.40
2023-01-19T03:09:31.846Z,94194.60
2023-01-19T03:12:18.645Z,94187.60
2023-01-19T03:14:48.105Z,94190.60
2023-01-19T03:17:19.027Z,94187.40
2023-01-19T03:19:49.564Z,94183.60
2023-01-19T03:22:27.102Z,94179.40
2023-01-19T03:24:57.118Z,94171.00
2023-01-19T03:27:40.784Z,94171.20
2023-01-19T03:30:18.569Z,94176.60
2023-01-19T03:32:52.753Z,94173.20
2023-01-19T03:35:24.278Z,94178.60
2023-01-19T03:37:55.452Z,94182.20
2023-01-19T03:40:24.754Z,94182.20
2023-01-19T03:42:51.800Z,94189.80
2023-01-19T03:45:18.634Z,94193.00
2023-01-19T03:47:45.369Z,94196.80
2023-01-19T03:50:22.140Z,94192.00
2023-01-19T03:53:09.639Z,94194.20
2023-01-19T03:55:39.383Z,94194.00
2023-01-19T03:58:06.182Z,94198.40
2023-01-19T04:00:33.993Z,94198.40
2023-01-19T04:03:01.041Z,94203.80
2023-01-19T04:05:27.984Z,94209.60
2023-01-19T04:07:54.666Z,94204.60
2023-01-19T04:10:22.268Z,94204.80
2023-01-19T04:12:49.334Z,94203.60
2023-01-19T04:15:16.398Z,94199.40
2023-01-19T04:17:42.895Z,94201.00
2023-01-19T04:20:10.209Z,94200.40
2023-01-19T04:22:36.786Z,94203.60
2023-01-19T04:25:04.076Z,94200.60
2023-01-19T04:27:30.656Z,94202.00
2023-01-19T04:29:57.357Z,94198.20
2023-01-19T04:32:24.204Z,94202.80
2023-01-19T04:34:50.819Z,94195.20
2023-01-19T04:37:17.971Z,94198.40
2023-01-19T04:39:44.487Z,94197.20
2023-01-19T04:42:11.085Z,94201.20
2023-01-19T04:44:37.637Z,94197.00
2023-01-19T04:47:04.760Z,94197.60
2023-01-19T04:49:31.472Z,94196.40
2023-01-19T04:51:58.048Z,94194.20
2023-01-19T04:54:24.742Z,94200.20
2023-01-19T04:56:51.369Z,94202.20
2023-01-19T04:59:19.851Z,94201.60
2023-01-19T05:01:46.375Z,94204.00
2023-01-19T05:04:12.980Z,94207.60
2023-01-19T05:06:39.509Z,94211.80
2023-01-19T05:09:09.117Z,94209.20
2023-01-19T05:11:36.184Z,94217.40
2023-01-19T05:14:02.830Z,94220.60
2023-01-19T05:16:29.637Z,94227.60
2023-01-19T05:18:56.786Z,94231.20
2023-01-19T05:21:23.445Z,94228.60
2023-01-19T05:23:50.051Z,94229.40
2023-01-19T05:26:16.734Z,94236.80
2023-01-19T05:28:43.360Z,94237.80
2023-01-19T05:31:10.039Z,94236.40
2023-01-19T05:33:36.707Z,94237.20
2023-01-19T05:36:04.338Z,94236.60
2023-01-19T05:38:35.617Z,94244.20
2023-01-19T05:41:02.847Z,94236.40
2023-01-19T05:43:29.488Z,94240.40
2023-01-19T05:45:56.058Z,94242.60
2023-01-19T05:48:22.696Z,94243.00
2023-01-19T05:50:49.670Z,94245.40
2023-01-19T05:53:17.429Z,94251.20
2023-01-19T05:55:44.490Z,94248.20
2023-01-19T05:58:11.140Z,94253.20
2023-01-19T06:00:37.735Z,94256.00
2023-01-19T06:03:06.524Z,94263.20
2023-01-19T06:05:34.003Z,94263.40
2023-01-19T06:08:00.570Z,94263.60
2023-01-19T06:10:27.514Z,94271.40
2023-01-19T06:12:54.091Z,94272.60
2023-01-19T06:15:20.847Z,94276.80
2023-01-19T06:17:47.521Z,94277.00
2023-01-19T06:20:14.243Z,94279.20
2023-01-19T06:22:40.888Z,94282.80
2023-01-19T06:25:08.203Z,94283.40
2023-01-19T06:27:34.817Z,94285.00
2023-01-19T06:30:01.437Z,94285.80
2023-01-19T06:32:28.132Z,94286.60
2023-01-19T06:34:54.662Z,94286.20
2023-01-19T06:37:21.291Z,94289.20
2023-01-19T06:39:47.896Z,94285.80
2023-01-19T06:42:14.497Z,94290.80
2023-01-19T06:44:47.344Z,94292.20
2023-01-19T06:47:16.491Z,94295.00
2023-01-19T06:49:43.685Z,94299.80
2023-01-19T06:52:12.293Z,94299.80
2023-01-19T06:54:38.865Z,94301.20
2023-01-19T06:57:05.730Z,94307.00
2023-01-19T06:59:32.329Z,94308.60
2023-01-19T07:01:59.170Z,94305.60
2023-01-19T07:04:27.132Z,94309.20
2023-01-19T07:06:53.856Z,94313.20
2023-01-19T07:09:20.661Z,94311.00
2023-01-19T07:11:48.475Z,94312.60
2023-01-19T07:14:15.628Z,94319.40
2023-01-19T07:16:42.563Z,94318.80
2023-01-19T07:19:10.803Z,94322.40
2023-01-19T07:21:37.626Z,94326.80
2023-01-19T07:24:04.435Z,94325.60
2023-01-19T07:26:31.158Z,94329.20
2023-01-19T07:28:57.710Z,94331.80
2023-01-19T07:31:24.586Z,94336.00
2023-01-19T07:33:51.255Z,94334.80
2023-01-19T07:36:17.945Z,94337.00
2023-01-19T07:38:44.520Z,94339.80
2023-01-19T07:41:11.726Z,94340.40
2023-01-19T07:43:38.431Z,94343.60
2023-01-19T07:46:07.861Z,94347.60
2023-01-19T07:48:34.535Z,94347.60
2023-01-19T07:51:05.878Z,94350.40
2023-01-19T07:53:32.904Z,94355.20
2023-01-19T07:55:59.661Z,94352.40
2023-01-19T07:58:26.687Z,94353.60
2023-01-19T08:00:53.775Z,94354.20
2023-01-19T08:03:20.507Z,94354.60
2023-01-19T08:05:52.614Z,94357.40
2023-01-19T08:08:19.555Z,94360.60
2023-01-19T08:10:50.786Z,94359.60
2023-01-19T08:13:18.613Z,94364.20
2023-01-19T08:15:45.327Z,94366.40
2023-01-19T08:18:12.019Z,94371.20
2023-01-19T08:20:38.719Z,94368.20
2023-01-19T08:23:05.483Z,94369.00
2023-01-19T08:25:35.308Z,94371.80
2023-01-19T08:28:04.522Z,94375.80
2023-01-19T08:30:31.491Z,94378.60
2023-01-19T08:33:04.350Z,94377.80
2023-01-19T08:35:32.428Z,94377.80
2023-01-19T08:38:01.602Z,94384.40
2023-01-19T08:40:30.876Z,94388.00
2023-01-19T08:43:06.690Z,94389.00
2023-01-19T08:45:41.633Z,94387.80
2023-01-19T08:48:08.357Z,94387.00
2023-01-19T08:50:35.144Z,94385.60
2023-01-19T08:53:04.562Z,94385.20
2023-01-19T08:55:31.250Z,94389.60
2023-01-19T08:58:00.163Z,94391.20
2023-01-19T09:00:28.162Z,94394.00
2023-01-19T09:02:55.100Z,94392.00
2023-01-19T09:05:22.346Z,94392.80
2023-01-19T09:07:49.970Z,94398.00
2023-01-19T09:10:17.877Z,94394.20
2023-01-19T09:12:45.061Z,94390.60
2023-01-19T09:15:13.965Z,94394.00
2023-01-19T09:17:42.356Z,94387.60
2023-01-19T09:20:10.153Z,94381.80
2023-01-19T09:22:36.783Z,94388.20
2023-01-19T09:25:03.785Z,94390.40
2023-01-19T09:27:30.928Z,94388.60
2023-01-19T09:29:57.491Z,94397.00
2023-01-19T09:32:24.182Z,94392.20
2023-01-19T09:34:51.199Z,94392.80
2023-01-19T09:37:17.965Z,94393.00
2023-01-19T09:39:44.647Z,94397.40
2023-01-19T09:42:44.752Z,94398.20
2023-01-19T09:45:23.044Z,94400.00
2023-01-19T09:47:51.319Z,94395.00
2023-01-19T09:50:28.225Z,94391.80
2023-01-19T09:53:15.362Z,94392.00
2023-01-19T09:55:42.641Z,94397.80
2023-01-19T09:58:18.344Z,94389.80
2023-01-19T10:00:55.820Z,94387.60
2023-01-19T10:03:23.973Z,94384.60
2023-01-19T10:06:04.824Z,94388.40
2023-01-19T10:08:53.875Z,94383.20
2023-01-19T10:11:52.672Z,94390.20
2023-01-19T10:14:36.938Z,94385.40
2023-01-19T10:17:47.047Z,94381.60
2023-01-19T10:20:39.936Z,94374.80
2023-01-19T10:23:30.251Z,94372.40
2023-01-19T10:26:01.335Z,94375.40
2023-01-19T10:28:28.274Z,94370.80
2023-01-19T10:30:56.033Z,94367.20
2023-01-19T10:33:22.868Z,94375.40
2023-01-19T10:35:50.484Z,94369.00
2023-01-19T10:38:22.220Z,94366.00
2023-01-19T10:41:06.169Z,94363.40
2023-01-19T10:43:35.466Z,94364.40
2023-01-19T10:46:18.053Z,94365.60
2023-01-19T10:48:51.999Z,94367.20
2023-01-19T10:51:20.190Z,94363.80
2023-01-19T10:54:01.681Z,94359.60
2023-01-19T10:56:34.846Z,94356.00
2023-01-19T10:59:05.213Z,94352.80
2023-01-19T11:01:36.927Z,94352.80
2023-01-19T11:04:29.352Z,94353.40
2023-01-19T11:07:21.320Z,94351.00
2023-01-19T11:09:49.511Z,94354.40
2023-01-19T11:12:23.324Z,94351.60
2023-01-19T11:14:51.352Z,94352.00
2023-01-19T11:17:25.356Z,94353.00
2023-01-19T11:19:59.353Z,94358.60
2023-01-19T11:22:30.670Z,94357.80
2023-01-19T11:25:00.175Z,94357.80
2023-01-19T11:27:27.735Z,94355.20
2023-01-19T11:30:22.984Z,94357.00
2023-01-19T11:32:49.672Z,94355.80
2023-01-19T11:35:35.346Z,94358.40
2023-01-19T11:38:20.773Z,94355.80
2023-01-19T11:40:59.060Z,94356.00
2023-01-19T11:43:43.355Z,94348.20
2023-01-19T11:46:15.499Z,94350.80
2023-01-19T11:49:38.476Z,94343.60
2023-01-19T11:52:13.635Z,94342.80
2023-01-19T11:55:10.895Z,94342.20
2023-01-19T11:57:39.547Z,94335.60
2023-01-19T12:00:47.388Z,94337.20
2023-01-19T12:03:24.291Z,94340.80
2023-01-19T12:06:02.377Z,94335.00
2023-01-19T12:08:41.910Z,94333.60
2023-01-19T12:11:16.704Z,94332.60
2023-01-19T12:13:45.634Z,94328.00
2023-01-19T12:16:20.721Z,94324.00
2023-01-19T12:19:01.727Z,94327.40
2023-01-19T12:21:28.556Z,94319.40
2023-01-19T12:24:16.436Z,94323.40
2023-01-19T12:27:02.239Z,94325.60
2023-01-19T12:29:33.453Z,94323.80
2023-01-19T12:32:18.416Z,94321.60
2023-01-19T12:34:49.526Z,94330.00
2023-01-19T12:37:31.186Z,94326.40
2023-01-19T12:40:21.212Z,94327.00
2023-01-19T12:43:02.201Z,94328.80
2023-01-19T12:45:35.324Z,94323.60
2023-01-19T12:48:04.346Z,94321.80
2023-01-19T12:50:38.244Z,94315.60
2023-01-19T12:53:17.872Z,94314.80
2023-01-19T12:55:47.575Z,94317.80
2023-01-19T12:58:18.881Z,94316.80
2023-01-19T13:00:48.924Z,94316.60
2023-01-19T13:03:18.401Z,94315.00
2023-01-19T13:05:44.956Z,94318.60
2023-01-19T13:08:14.171Z,94315.60
2023-01-19T13:10:59.820Z,94318.20
2023-01-19T13:13:40.370Z,94318.40
2023-01-19T13:16:19.179Z,94317.40
2023-01-19T13:19:06.239Z,94315.80
2023-01-19T13:21:47.398Z,94320.20
2023-01-19T13:24:25.229Z,94320.00
2023-01-19T13:26:51.759Z,94317.00
2023-01-19T13:29:26.631Z,94320.00
2023-01-19T13:31:56.103Z,94320.60
2023-01-19T13:34:27.916Z,94323.60
2023-01-19T13:36:59.257Z,94323.60
2023-01-19T13:39:41.742Z,94324.20
2023-01-19T13:42:16.415Z,94325.00
2023-01-19T13:44:52.351Z,94326.00
2023-01-19T13:47:45.687Z,94320.40
2023-01-19T13:50:26.325Z,94322.40
2023-01-19T13:52:55.664Z,94325.60
2023-01-19T13:55:24.156Z,94321.20
2023-01-19T13:57:52.393Z,94325.40
2023-01-19T14:00:26.811Z,94323.20
2023-01-19T14:03:01.032Z,94324.40
2023-01-19T14:05:35.798Z,94324.20
2023-01-19T14:08:11.307Z,94323.20
2023-01-19T14:10:40.517Z,94321.00
2023-01-19T14:13:16.314Z,94323.00
2023-01-19T14:15:45.173Z,94327.80
2023-01-19T14:18:14.479Z,94328.60
2023-01-19T14:20:42.207Z,94332.20
2023-01-19T14:24:10.384Z,94333.80
2023-01-19T14:27:25.507Z,94336.40
2023-01-19T14:29:54.772Z,94339.60
2023-01-19T14:32:24.871Z,94342.40
2023-01-19T14:35:14.615Z,94342.80
2023-01-19T14:37:50.301Z,94340.80
2023-01-19T14:40:22.409Z,94341.00
2023-01-19T14:43:00.154Z,94339.60
2023-01-19T14:45:39.536Z,94346.20
2023-01-19T14:48:17.966Z,94350.80
2023-01-19T14:51:01.901Z,94347.60
2023-01-19T14:53:36.581Z,94347.60
2023-01-19T14:56:06.066Z,94348.00
2023-01-19T14:58:35.866Z,94353.60
2023-01-19T15:01:04.708Z,94357.00
2023-01-19T15:03:44.704Z,94361.00
2023-01-19T15:06:19.068Z,94363.60
2023-01-19T15:08:47.143Z,94367.60
2023-01-19T15:11:28.400Z,94368.00
2023-01-19T15:13:59.188Z,94370.80
2023-01-19T15:16:28.103Z,94366.40
2023-01-19T15:18:55.342Z,94365.20
2023-01-19T15:21:29.119Z,94371.60
2023-01-19T15:23:56.255Z,94373.40
2023-01-19T15:26:25.938Z,94378.40
2023-01-19T15:28:53.556Z,94382.00
2023-01-19T15:31:23.637Z,94382.20
2023-01-19T15:33:50.654Z,94381.00
2023-01-19T15:36:22.118Z,94377.20
2023-01-19T15:38:51.254Z,94384.00
2023-01-19T15:41:29.673Z,94385.60
2023-01-19T15:43:57.029Z,94378.00
2023-01-19T15:46:25.810Z,94381.00
2023-01-19T15:48:53.780Z,94380.60
2023-01-19T15:51:25.468Z,94384.20
2023-01-19T15:53:53.781Z,94382.20
2023-01-19T15:56:23.438Z,94387.00
2023-01-19T15:58:50.846Z,94383.20
2023-01-19T16:01:22.396Z,94384.40
2023-01-19T16:03:50.333Z,94386.80
2023-01-19T16:06:18.311Z,94391.00
2023-01-19T16:08:45.438Z,94393.60
2023-01-19T16:11:15.473Z,94398.40
2023-01-19T16:13:46.310Z,94395.00
2023-01-19T16:16:20.401Z,94400.00
2023-01-19T16:18:47.822Z,94400.40
2023-01-19T16:21:14.560Z,94397.60
2023-01-19T16:23:41.128Z,94397.20
2023-01-19T16:26:34.210Z,94400.00
2023-01-19T16:29:08.780Z,94399.00
2023-01-19T16:31:40.899Z,94400.60
2023-01-19T16:34:09.247Z,94403.20
2023-01-19T16:36:38.676Z,94400.40
2023-01-19T16:39:11.923Z,94401.40
2023-01-19T16:41:39.091Z,94400.60
2023-01-19T16:44:06.663Z,94396.40
2023-01-19T16:46:37.757Z,94395.20
2023-01-19T16:49:10.991Z,94391.20
2023-01-19T16:51:38.201Z,94387.40
2023-01-19T16:54:05.379Z,94392.40
2023-01-19T16:56:32.009Z,94392.40
2023-01-19T16:58:59.497Z,94401.20
2023-01-19T17:01:29.359Z,94403.60
2023-01-19T17:03:56.643Z,94406.80
2023-01-19T17:06:24.815Z,94402.40
2023-01-19T17:08:53.129Z,94401.60
2023-01-19T17:11:27.277Z,94406.80
2023-01-19T17:14:02.951Z,94404.80
2023-01-19T17:16:32.355Z,94406.20
2023-01-19T17:19:03.622Z,94406.60
2023-01-19T17:21:30.289Z,94407.60
2023-01-19T17:23:58.410Z,94407.80
2023-01-19T17:26:28.458Z,94409.60
2023-01-19T17:29:06.007Z,94405.80
2023-01-19T17:31:33.997Z,94401.00
2023-01-19T17:34:01.130Z,94410.20
2023-01-19T17:36:31.381Z,94405.60
2023-01-19T17:39:00.931Z,94404.20
2023-01-19T17:41:31.562Z,94405.60
2023-01-19T17:44:00.344Z,94402.40
2023-01-19T17:46:29.251Z,94399.80
2023-01-19T17:49:04.631Z,94404.80
2023-01-19T17:51:31.748Z,94403.00
2023-01-19T17:53:59.316Z,94399.00
2023-01-19T17:56:32.665Z,94402.00
2023-01-19T17:58:59.789Z,94400.40
2023-01-19T18:01:30.278Z,94403.60
2023-01-19T18:03:58.177Z,94405.20
2023-01-19T18:06:24.933Z,94413.40
2023-01-19T18:08:52.598Z,94411.60
2023-01-19T18:11:21.367Z,94412.00
2023-01-19T18:13:50.749Z,94410.80
2023-01-19T18:16:23.357Z,94412.80
2023-01-19T18:18:53.704Z,94413.20
2023-01-19T18:21:22.096Z,94410.20
2023-01-19T18:23:50.141Z,94414.20
2023-01-19T18:26:20.502Z,94416.20
2023-01-19T18:28:48.773Z,94417.00
2023-01-19T18:31:18.709Z,94417.20
2023-01-19T18:33:46.585Z,94414.40
2023-01-19T18:36:13.865Z,94414.60
2023-01-19T18:38:41.019Z,94418.00
2023-01-19T18:41:16.316Z,94416.00
2023-01-19T18:43:43.628Z,94416.00
2023-01-19T18:46:11.512Z,94416.80
2023-01-19T18:48:39.600Z,94417.80
2023-01-19T18:51:12.478Z,94421.60
2023-01-19T18:53:39.901Z,94422.40
2023-01-19T18:56:07.472Z,94424.40
2023-01-19T18:58:38.172Z,94420.80
2023-01-19T19:01:17.410Z,94419.00
2023-01-19T19:03:44.300Z,94420.60
2023-01-19T19:06:11.665Z,94422.20
2023-01-19T19:08:38.357Z,94416.80
2023-01-19T19:11:09.097Z,94422.20
2023-01-19T19:13:36.611Z,94420.00
2023-01-19T19:16:09.084Z,94422.80
2023-01-19T19:18:37.015Z,94424.00
2023-01-19T19:21:10.141Z,94421.40
2023-01-19T19:23:37.244Z,94415.40
2023-01-19T19:26:10.113Z,94413.20
2023-01-19T19:28:40.172Z,94411.60
2023-01-19T19:31:13.084Z,94411.60
2023-01-19T19:33:39.923Z,94409.80
2023-01-19T19:36:08.142Z,94412.60
2023-01-19T19:38:36.954Z,94411.60
2023-01-19T19:41:09.247Z,94406.20
2023-01-19T19:43:37.102Z,94412.00
2023-01-19T19:46:08.332Z,94409.80
2023-01-19T19:48:38.900Z,94408.80
2023-01-19T19:51:18.340Z,94407.80
2023-01-19T19:53:46.779Z,94404.40
2023-01-19T19:56:13.845Z,94407.40
2023-01-19T19:58:42.529Z,94405.80
2023-01-19T20:01:12.391Z,94408.80
2023-01-19T20:03:39.953Z,94412.80
2023-01-19T20:06:15.939Z,94412.00
2023-01-19T20:08:42.652Z,94411.60
2023-01-19T20:11:13.508Z,94412.20
2023-01-19T20:13:42.678Z,94415.20
2023-01-19T20:16:17.229Z,94414.60
2023-01-19T20:18:48.573Z,94419.60
2023-01-19T20:21:22.222Z,94418.60
2023-01-19T20:23:50.894Z,94420.20
2023-01-19T20:26:26.382Z,94427.20
2023-01-19T20:28:54.520Z,94421.40
2023-01-19T20:31:27.053Z,94422.80
2023-01-19T20:33:56.446Z,94417.60
2023-01-19T20:36:24.521Z,94419.60
2023-01-19T20:38:55.283Z,94415.40
2023-01-19T20:41:23.006Z,94414.00
2023-01-19T20:43:50.337Z,94413.40
2023-01-19T20:46:18.281Z,94416.60
2023-01-19T20:48:50.680Z,94414.60
2023-01-19T20:51:18.820Z,94411.80
2023-01-19T20:53:45.984Z,94414.20
2023-01-19T20:56:14.481Z,94413.60
2023-01-19T20:58:41.810Z,94414.40
2023-01-19T21:01:24.937Z,94410.20
2023-01-19T21:03:52.563Z,94413.20
2023-01-19T21:06:21.502Z,94409.20
2023-01-19T21:08:50.056Z,94415.00
2023-01-19T21:11:20.719Z,94416.00
2023-01-19T21:13:48.918Z,94413.00
2023-01-19T21:16:15.939Z,94412.40
2023-01-19T21:18:43.281Z,94413.60
2023-01-19T21:21:20.892Z,94414.40
2023-01-19T21:23:57.191Z,94416.40
2023-01-19T21:26:24.166Z,94415.40
2023-01-19T21:28:50.879Z,94416.60
2023-01-19T21:31:17.801Z,94414.80
2023-01-19T21:33:44.445Z,94417.60
2023-01-19T21:36:11.178Z,94422.60
2023-01-19T21:38:39.377Z,94422.40
2023-01-19T21:41:12.756Z,94427.60
2023-01-19T21:43:41.802Z,94422.40
2023-01-19T21:46:29.787Z,94427.40
2023-01-19T21:49:05.779Z,94423.40
2023-01-19T21:51:35.395Z,94422.20
2023-01-19T21:54:04.138Z,94423.00
2023-01-19T21:56:30.886Z,94423.80
2023-01-19T21:59:02.208Z,94429.60
2023-01-19T22:01:29.822Z,94428.20
2023-01-19T22:03:58.308Z,94433.40
2023-01-19T22:06:26.690Z,94436.40
2023-01-19T22:08:54.664Z,94436.80
2023-01-19T22:11:22.039Z,94441.20
2023-01-19T22:13:48.684Z,94445.00
2023-01-19T22:16:21.363Z,94447.80
2023-01-19T22:19:02.300Z,94444.60
2023-01-19T22:21:35.337Z,94448.20
2023-01-19T22:24:04.682Z,94449.80
2023-01-19T22:26:34.230Z,94452.60
2023-01-19T22:29:03.091Z,94453.80
2023-01-19T22:31:30.873Z,94451.00
2023-01-19T22:33:58.073Z,94453.60
2023-01-19T22:36:28.926Z,94456.60
2023-01-19T22:38:58.865Z,94460.60
2023-01-19T22:41:29.535Z,94468.40
2023-01-19T22:43:59.725Z,94470.80
2023-01-19T22:46:30.706Z,94468.00
2023-01-19T22:48:58.775Z,94470.00
2023-01-19T22:51:27.193Z,94466.20
2023-01-19T22:53:54.038Z,94471.20
2023-01-19T22:56:27.496Z,94468.80
2023-01-19T22:58:54.943Z,94471.60
2023-01-19T23:01:42.908Z,94468.20
2023-01-19T23:04:14.589Z,94464.20
2023-01-19T23:06:41.389Z,94464.80
2023-01-19T23:09:12.682Z,94462.60
2023-01-19T23:11:43.295Z,94465.60
2023-01-19T23:14:15.717Z,94468.80
2023-01-19T23:16:42.532Z,94472.20
2023-01-19T23:19:12.240Z,94465.00
2023-01-19T23:21:38.911Z,94459.00
2023-01-19T23:24:05.861Z,94465.80
2023-01-19T23:26:39.025Z,94461.40
2023-01-19T23:29:12.736Z,94457.60
2023-01-19T23:31:44.061Z,94462.00
2023-01-19T23:34:12.382Z,94463.80
2023-01-19T23:36:41.440Z,94465.80
2023-01-19T23:39:17.655Z,94461.20
2023-01-19T23:41:45.628Z,94460.80
2023-01-19T23:44:13.081Z,94458.40
2023-01-19T23:46:39.783Z,94459.00
2023-01-19T23:49:06.563Z,94451.60
2023-01-19T23:51:35.884Z,94459.00
2023-01-19T23:54:02.743Z,94453.60
2023-01-19T23:56:33.548Z,94461.20
2023-01-19T23:59:13.280Z,94458.60
